Nathalie — OJLP — position and weather

sailwx.info

Track history (hours):
 
Tides and Currents Weather Stations Pressure Air Temp Water Temp Dewpoint Dewpoint Depression Visibility Wind Speed Wind Dir Waves Ship Positions

Nathalie

Last reported at 2014-Dec-21 02:09 UTC. Time now 2014-Dec-21 13:31 UTC.
Position N 54°56' E 012°32'.

Length 64 m; draft 2.3 m.

Type: Cargo ship. MMSI: 230987660.

Date/timePositionNaut miles runAvg speedWind from/ knotsBaromVisibWave heightAir tempDewpointWater temp
2014-Dec-21 02:09N 54°56' E 012°32'6 9.8
2014-Dec-21 01:33N 54°59' E 012°41'10 9.3
2014-Dec-21 00:26N 55°08' E 012°52'8 9.4
2014-Dec-20 23:33N 55°13' E 013°03'8 8.3
2014-Dec-20 22:34N 55°17' E 013°15'10 9.4
2014-Dec-20 21:32N 55°21' E 013°31'9 9.1
2014-Dec-20 20:34N 55°23' E 013°46'8 8.0
2014-Dec-20 19:33N 55°22' E 014°00'8 7.9
2014-Dec-20 18:33N 55°22' E 014°14'8 7.7
2014-Dec-20 17:33N 55°28' E 014°23'10 9.9
2014-Dec-20 16:34N 55°37' E 014°28'9 9.0
2014-Dec-20 15:33N 55°46' E 014°35'115 5.7
2014-Dec-19 19:33N 57°14' E 016°49'10 9.8
2014-Dec-19 18:33N 57°23' E 016°54'  
2014-Dec-15 08:29N 59°51' E 022°53'7 6.5
2014-Dec-15 07:27N 59°46' E 023°02'  
2014-Dec-12 14:15N 59°45' E 023°57'12 1.3
2014-Dec-12 05:06N 59°40' E 024°19'5 9.5
2014-Dec-12 04:33N 59°36' E 024°24'9 9.5
2014-Dec-12 03:33N 59°29' E 024°36'3 2.6
2014-Dec-12 02:31N 59°27' E 024°40'0 0.0
2014-Dec-12 01:28N 59°27' E 024°40'0 0.0
2014-Dec-12 00:16N 59°27' E 024°40'0 0.0
2014-Dec-11 23:31N 59°27' E 024°40'0 0.0
2014-Dec-11 22:28N 59°27' E 024°40'0 0.0
2014-Dec-11 21:22N 59°27' E 024°40'0 0.0
2014-Dec-11 20:22N 59°27' E 024°40'0 0.0
2014-Dec-11 19:31N 59°27' E 024°40'3 3.3
2014-Dec-11 18:33N 59°29' E 024°35'  
Track history (hours):
 
Tides and Currents Weather Stations Pressure Air Temp Water Temp Dewpoint Dewpoint Depression Visibility Wind Speed Wind Dir Waves Ship Positions

Nathalie

Last reported at 2014-Dec-21 02:09 UTC. Time now 2014-Dec-21 13:31 UTC.
Position N 54°56' E 012°32'.

Length 64 m; draft 2.3 m.

Type: Cargo ship. MMSI: 230987660.

Date/timePositionNaut miles runAvg speedWind from/ knotsBaromVisibWave heightAir tempDewpointWater temp
2014-Dec-21 02:09N 54°56' E 012°32'6 9.8
2014-Dec-21 01:33N 54°59' E 012°41'10 9.3
2014-Dec-21 00:26N 55°08' E 012°52'8 9.4
2014-Dec-20 23:33N 55°13' E 013°03'8 8.3
2014-Dec-20 22:34N 55°17' E 013°15'10 9.4
2014-Dec-20 21:32N 55°21' E 013°31'9 9.1
2014-Dec-20 20:34N 55°23' E 013°46'8 8.0
2014-Dec-20 19:33N 55°22' E 014°00'8 7.9
2014-Dec-20 18:33N 55°22' E 014°14'8 7.7
2014-Dec-20 17:33N 55°28' E 014°23'10 9.9
2014-Dec-20 16:34N 55°37' E 014°28'9 9.0
2014-Dec-20 15:33N 55°46' E 014°35'115 5.7
2014-Dec-19 19:33N 57°14' E 016°49'10 9.8
2014-Dec-19 18:33N 57°23' E 016°54'  
2014-Dec-15 08:29N 59°51' E 022°53'7 6.5
2014-Dec-15 07:27N 59°46' E 023°02'  
2014-Dec-12 14:15N 59°45' E 023°57'12 1.3
2014-Dec-12 05:06N 59°40' E 024°19'5 9.5
2014-Dec-12 04:33N 59°36' E 024°24'9 9.5
2014-Dec-12 03:33N 59°29' E 024°36'3 2.6
2014-Dec-12 02:31N 59°27' E 024°40'0 0.0
2014-Dec-12 01:28N 59°27' E 024°40'0 0.0
2014-Dec-12 00:16N 59°27' E 024°40'0 0.0
2014-Dec-11 23:31N 59°27' E 024°40'0 0.0
2014-Dec-11 22:28N 59°27' E 024°40'0 0.0
2014-Dec-11 21:22N 59°27' E 024°40'0 0.0
2014-Dec-11 20:22N 59°27' E 024°40'0 0.0
2014-Dec-11 19:31N 59°27' E 024°40'3 3.3
2014-Dec-11 18:33N 59°29' E 024°35'  

Dump ship's entire track history